createdAt,value
2019-03-22T00:00:01.834Z,5.34
2019-03-22T00:01:01.823Z,5.27
2019-03-22T00:02:01.821Z,5.32
2019-03-22T00:03:01.839Z,5.28
2019-03-22T00:04:01.810Z,5.28
2019-03-22T00:05:01.809Z,5.35
2019-03-22T00:06:01.809Z,5.37
2019-03-22T00:07:01.788Z,5.34
2019-03-22T00:08:01.789Z,5.31
2019-03-22T00:09:01.777Z,5.34
2019-03-22T00:10:01.780Z,5.40
2019-03-22T00:11:01.776Z,5.46
2019-03-22T00:12:04.214Z,5.46
2019-03-22T00:13:01.762Z,5.45
2019-03-22T00:14:01.751Z,5.43
2019-03-22T00:15:01.746Z,5.40
2019-03-22T00:16:01.738Z,5.41
2019-03-22T00:17:01.741Z,5.48
2019-03-22T00:18:01.730Z,5.30
2019-03-22T00:19:01.754Z,5.34
2019-03-22T00:20:01.725Z,5.31
2019-03-22T00:21:01.715Z,5.40
2019-03-22T00:22:01.704Z,5.34
2019-03-22T00:23:01.696Z,5.30
2019-03-22T00:24:01.694Z,5.16
2019-03-22T00:25:01.694Z,5.32
2019-03-22T00:26:01.690Z,5.16
2019-03-22T00:27:01.691Z,5.10
2019-03-22T00:28:01.668Z,5.19
2019-03-22T00:29:01.666Z,5.07
2019-03-22T00:30:01.663Z,5.13
2019-03-22T00:31:01.651Z,5.07
2019-03-22T00:32:01.649Z,5.16
2019-03-22T00:33:01.645Z,5.19
2019-03-22T00:34:01.635Z,5.19
2019-03-22T00:35:01.634Z,5.16
2019-03-22T00:36:01.626Z,5.14
2019-03-22T00:37:01.619Z,5.12
2019-03-22T00:38:01.613Z,5.07
2019-03-22T00:39:01.609Z,5.14
2019-03-22T00:40:01.602Z,5.09
2019-03-22T00:41:01.600Z,5.04
2019-03-22T00:42:01.588Z,5.14
2019-03-22T00:43:01.586Z,5.07
2019-03-22T00:44:01.603Z,5.14
2019-03-22T00:45:01.569Z,5.09
2019-03-22T00:46:01.568Z,5.12
2019-03-22T00:47:01.559Z,5.13
2019-03-22T00:48:01.554Z,5.14
2019-03-22T00:49:01.558Z,5.19
2019-03-22T00:50:01.541Z,5.16
2019-03-22T00:51:01.540Z,5.10
2019-03-22T00:52:01.533Z,5.12
2019-03-22T00:53:01.532Z,5.01
2019-03-22T00:54:01.530Z,4.95
2019-03-22T00:55:01.516Z,5.07
2019-03-22T00:56:01.507Z,4.98
2019-03-22T00:57:01.503Z,4.91
2019-03-22T00:58:01.499Z,4.99
2019-03-22T00:59:01.529Z,4.88
2019-03-22T01:00:01.488Z,5.02
2019-03-22T01:01:01.483Z,4.94
2019-03-22T01:02:01.473Z,4.95
2019-03-22T01:03:01.466Z,5.02
2019-03-22T01:04:01.467Z,4.94
2019-03-22T01:05:01.456Z,4.95
2019-03-22T01:06:01.451Z,5.02
2019-03-22T01:07:01.442Z,4.94
2019-03-22T01:08:01.439Z,4.99
2019-03-22T01:09:01.429Z,4.95
2019-03-22T01:10:01.428Z,5.02
2019-03-22T01:11:01.417Z,4.94
2019-03-22T01:12:01.436Z,4.99
2019-03-22T01:13:01.405Z,5.07
2019-03-22T01:14:01.399Z,5.12
2019-03-22T01:15:01.396Z,5.05
2019-03-22T01:16:01.386Z,4.94
2019-03-22T01:17:01.429Z,4.95
2019-03-22T01:18:01.382Z,4.89
2019-03-22T01:19:01.371Z,4.89
2019-03-22T01:20:01.381Z,4.86
2019-03-22T01:21:01.363Z,4.84
2019-03-22T01:22:01.353Z,4.91
2019-03-22T01:23:01.345Z,4.89
2019-03-22T01:24:01.350Z,4.94
2019-03-22T01:25:01.335Z,4.89
2019-03-22T01:26:01.328Z,4.91
2019-03-22T01:27:01.332Z,4.84
2019-03-22T01:28:01.358Z,4.83
2019-03-22T01:29:01.308Z,4.79
2019-03-22T01:30:01.314Z,4.88
2019-03-22T01:31:01.300Z,4.89
2019-03-22T01:32:01.293Z,4.94
2019-03-22T01:33:01.288Z,4.91
2019-03-22T01:34:01.284Z,4.88
2019-03-22T01:35:01.279Z,4.89
2019-03-22T01:36:01.271Z,4.89
2019-03-22T01:37:01.262Z,4.94
2019-03-22T01:38:01.257Z,4.89
2019-03-22T01:39:01.293Z,4.86
2019-03-22T01:40:01.247Z,4.84
2019-03-22T01:41:01.269Z,4.94
2019-03-22T01:42:01.237Z,4.91
2019-03-22T01:43:01.228Z,4.95
2019-03-22T01:44:01.222Z,4.96
2019-03-22T01:45:01.248Z,4.88
2019-03-22T01:46:01.212Z,4.88
2019-03-22T01:47:01.231Z,4.83
2019-03-22T01:48:01.229Z,4.77
2019-03-22T01:49:01.191Z,4.79
2019-03-22T01:50:01.187Z,4.76
2019-03-22T01:51:01.199Z,4.75
2019-03-22T01:52:01.182Z,4.76
2019-03-22T01:53:01.169Z,4.72
2019-03-22T01:54:01.162Z,4.73
2019-03-22T01:55:01.158Z,4.70
2019-03-22T01:56:01.152Z,4.77
2019-03-22T01:57:01.144Z,4.79
2019-03-22T01:58:01.139Z,4.83
2019-03-22T01:59:01.132Z,4.77
2019-03-22T02:00:01.125Z,4.86
2019-03-22T02:01:01.119Z,4.88
2019-03-22T02:02:01.115Z,4.91
2019-03-22T02:03:01.122Z,4.95
2019-03-22T02:04:01.106Z,4.89
2019-03-22T02:05:01.120Z,4.84
2019-03-22T02:06:01.092Z,4.92
2019-03-22T02:07:01.089Z,4.92
2019-03-22T02:08:01.107Z,4.94
2019-03-22T02:09:01.075Z,4.91
2019-03-22T02:10:01.069Z,4.94
2019-03-22T02:11:01.059Z,4.92
2019-03-22T02:12:01.059Z,4.83
2019-03-22T02:13:01.080Z,4.88
2019-03-22T02:14:01.042Z,4.88
2019-03-22T02:15:01.036Z,4.89
2019-03-22T02:16:01.036Z,4.89
2019-03-22T02:17:01.024Z,4.88
2019-03-22T02:18:01.021Z,4.86
2019-03-22T02:19:01.012Z,4.92
2019-03-22T02:20:01.007Z,4.95
2019-03-22T02:21:01.020Z,4.92
2019-03-22T02:22:01.004Z,5.01
2019-03-22T02:23:00.987Z,5.13
2019-03-22T02:24:00.982Z,5.12
2019-03-22T02:25:00.977Z,5.13
2019-03-22T02:26:00.971Z,5.10
2019-03-22T02:27:00.964Z,5.05
2019-03-22T02:28:04.474Z,4.95
2019-03-22T02:29:00.954Z,4.99
2019-03-22T02:30:00.946Z,4.79
2019-03-22T02:31:00.942Z,4.80
2019-03-22T02:32:00.943Z,4.76
2019-03-22T02:33:00.928Z,4.75
2019-03-22T02:34:00.921Z,4.79
2019-03-22T02:35:00.914Z,4.76
2019-03-22T02:36:00.906Z,4.80
2019-03-22T02:37:00.906Z,4.72
2019-03-22T02:38:00.898Z,4.69
2019-03-22T02:39:00.925Z,4.72
2019-03-22T02:40:00.888Z,4.61
2019-03-22T02:41:00.886Z,4.69
2019-03-22T02:42:00.890Z,4.61
2019-03-22T02:43:00.865Z,4.61
2019-03-22T02:44:00.860Z,4.67
2019-03-22T02:45:00.858Z,4.70
2019-03-22T02:46:00.849Z,4.69
2019-03-22T02:47:00.843Z,4.70
2019-03-22T02:48:00.836Z,4.62
2019-03-22T02:49:00.834Z,4.64
2019-03-22T02:50:11.681Z,4.65
2019-03-22T02:51:00.815Z,4.69
2019-03-22T02:52:00.812Z,4.76
2019-03-22T02:53:00.822Z,4.73
2019-03-22T02:54:00.796Z,4.75
2019-03-22T02:55:00.790Z,4.86
2019-03-22T02:56:00.930Z,4.86
2019-03-22T02:57:00.798Z,4.96
2019-03-22T02:58:00.826Z,4.99
2019-03-22T02:59:00.766Z,4.91
2019-03-22T03:00:00.760Z,4.88
2019-03-22T03:01:00.794Z,4.91
2019-03-22T03:02:00.754Z,4.91
2019-03-22T03:03:00.760Z,4.86
2019-03-22T03:04:00.735Z,4.79
2019-03-22T03:05:00.729Z,4.83
2019-03-22T03:06:00.729Z,4.79
2019-03-22T03:07:00.726Z,4.79
2019-03-22T03:08:00.733Z,4.80
2019-03-22T03:09:00.711Z,4.86
2019-03-22T03:10:00.698Z,4.79
2019-03-22T03:11:00.707Z,4.76
2019-03-22T03:12:00.690Z,4.70
2019-03-22T03:13:00.692Z,4.67
2019-03-22T03:14:00.687Z,4.72
2019-03-22T03:15:00.700Z,4.65
2019-03-22T03:16:00.671Z,4.72
2019-03-22T03:17:00.664Z,4.73
2019-03-22T03:18:00.655Z,4.70
2019-03-22T03:19:00.728Z,4.72
2019-03-22T03:20:00.642Z,4.73
2019-03-22T03:21:00.637Z,4.77
2019-03-22T03:22:00.649Z,4.77
2019-03-22T03:23:00.642Z,4.79
2019-03-22T03:24:00.618Z,4.79
2019-03-22T03:25:00.608Z,4.86
2019-03-22T03:26:00.603Z,4.86
2019-03-22T03:27:00.596Z,4.77
2019-03-22T03:28:00.591Z,4.77
2019-03-22T03:29:00.589Z,4.80
2019-03-22T03:30:02.348Z,4.88
2019-03-22T03:31:00.592Z,4.70
2019-03-22T03:32:00.578Z,4.72
2019-03-22T03:33:00.575Z,4.65
2019-03-22T03:34:00.563Z,4.64
2019-03-22T03:35:01.123Z,4.58
2019-03-22T03:36:00.548Z,4.64
2019-03-22T03:37:00.537Z,4.52
2019-03-22T03:38:00.535Z,4.51
2019-03-22T03:39:00.563Z,4.61
2019-03-22T03:40:00.582Z,4.67
2019-03-22T03:41:00.518Z,4.70
2019-03-22T03:42:00.554Z,4.61
2019-03-22T03:43:00.531Z,4.65
2019-03-22T03:44:00.493Z,4.72
2019-03-22T03:45:00.686Z,4.79
2019-03-22T03:46:00.478Z,4.77
2019-03-22T03:47:00.472Z,4.72
2019-03-22T03:48:00.479Z,4.76
2019-03-22T03:49:00.462Z,4.77
2019-03-22T03:50:00.504Z,4.76
2019-03-22T03:51:00.448Z,4.80
2019-03-22T03:52:00.449Z,4.77
2019-03-22T03:53:00.439Z,4.76
2019-03-22T03:54:00.433Z,4.83
2019-03-22T03:55:00.568Z,4.76
2019-03-22T03:56:00.420Z,4.79
2019-03-22T03:57:00.415Z,4.72
2019-03-22T03:58:00.415Z,4.69
2019-03-22T03:59:00.408Z,4.72
2019-03-22T04:00:00.498Z,4.67
2019-03-22T04:01:00.406Z,4.64
2019-03-22T04:02:00.408Z,4.70
2019-03-22T04:03:00.415Z,4.59
2019-03-22T04:04:00.402Z,4.67
2019-03-22T04:05:00.488Z,4.67
2019-03-22T04:06:00.353Z,4.65
2019-03-22T04:07:00.427Z,4.67
2019-03-22T04:08:00.372Z,4.67
2019-03-22T04:09:00.367Z,4.62
2019-03-22T04:10:00.621Z,4.64
2019-03-22T04:11:00.363Z,4.65
2019-03-22T04:12:00.341Z,4.79
2019-03-22T04:13:00.381Z,4.69
2019-03-22T04:14:00.313Z,4.72
2019-03-22T04:15:00.483Z,4.72
2019-03-22T04:16:00.296Z,4.67
2019-03-22T04:17:00.287Z,4.69
2019-03-22T04:18:00.282Z,4.70
2019-03-22T04:19:00.278Z,4.72
2019-03-22T04:20:00.482Z,4.67
2019-03-22T04:21:00.311Z,4.69
2019-03-22T04:22:00.263Z,4.64
2019-03-22T04:23:00.292Z,4.64
2019-03-22T04:24:00.247Z,4.64
2019-03-22T04:25:00.530Z,4.65
2019-03-22T04:26:00.235Z,4.65
2019-03-22T04:27:00.231Z,4.64
2019-03-22T04:28:00.223Z,4.65
2019-03-22T04:29:07.174Z,4.72
2019-03-22T04:30:00.461Z,4.72
2019-03-22T04:31:00.197Z,4.70
2019-03-22T04:32:00.205Z,4.73
2019-03-22T04:33:00.187Z,4.65
2019-03-22T04:34:00.183Z,4.79
2019-03-22T04:35:00.411Z,4.77
2019-03-22T04:36:00.168Z,4.79
2019-03-22T04:37:00.202Z,4.76
2019-03-22T04:38:00.168Z,4.79
2019-03-22T04:39:00.148Z,4.69
2019-03-22T04:40:00.382Z,4.62
2019-03-22T04:41:00.145Z,4.58
2019-03-22T04:42:00.136Z,4.67
2019-03-22T04:43:00.142Z,4.61
2019-03-22T04:44:00.122Z,4.59
2019-03-22T04:45:00.332Z,4.50
2019-03-22T04:46:00.116Z,4.54
2019-03-22T04:47:00.102Z,4.57
2019-03-22T04:48:00.095Z,4.58
2019-03-22T04:49:00.090Z,4.65
2019-03-22T04:50:00.084Z,4.69
2019-03-22T04:51:00.080Z,4.65
2019-03-22T04:52:00.071Z,4.70
2019-03-22T04:53:00.077Z,4.69
2019-03-22T04:54:00.123Z,4.70
2019-03-22T04:55:00.053Z,4.64
2019-03-22T04:56:01.851Z,4.44
2019-03-22T04:57:00.043Z,4.50
2019-03-22T04:58:00.032Z,4.54
2019-03-22T04:59:00.025Z,4.47
2019-03-22T05:00:00.028Z,4.43
2019-03-22T05:01:00.015Z,4.55
2019-03-22T05:02:00.027Z,4.57
2019-03-22T05:03:00.000Z,4.54
2019-03-22T05:04:00.000Z,4.50
2019-03-22T05:05:00.109Z,4.64
2019-03-22T05:05:59.982Z,4.57
2019-03-22T05:06:59.975Z,4.51
2019-03-22T05:08:00.026Z,4.54
2019-03-22T05:08:59.967Z,4.54
2019-03-22T05:09:59.961Z,4.61
2019-03-22T05:10:59.951Z,4.65
2019-03-22T05:11:59.948Z,4.69
2019-03-22T05:12:59.972Z,4.69
2019-03-22T05:13:59.951Z,4.67
2019-03-22T05:14:59.930Z,4.65
2019-03-22T05:16:07.528Z,4.62
2019-03-22T05:17:53.005Z,4.80
2019-03-22T05:18:54.206Z,4.80
2019-03-22T05:20:45.942Z,4.79
2019-03-22T05:21:45.959Z,4.77
2019-03-22T05:23:39.336Z,4.80
2019-03-22T05:24:39.380Z,4.80
2019-03-22T05:26:33.425Z,4.75
2019-03-22T05:27:32.677Z,4.72
2019-03-22T05:29:30.563Z,4.67
2019-03-22T05:30:26.223Z,4.76
2019-03-22T05:32:19.953Z,4.65
2019-03-22T05:33:20.960Z,4.64
2019-03-22T05:34:21.494Z,4.62
2019-03-22T05:35:20.724Z,4.67
2019-03-22T05:36:20.706Z,4.65
2019-03-22T05:37:20.425Z,4.69
2019-03-22T05:38:20.741Z,4.83
2019-03-22T05:39:21.206Z,4.80
2019-03-22T05:40:20.936Z,4.79
2019-03-22T05:41:23.138Z,4.88
2019-03-22T05:42:20.735Z,4.86
2019-03-22T05:43:19.747Z,4.86
2019-03-22T05:44:19.850Z,4.88
2019-03-22T05:45:21.339Z,4.88
2019-03-22T05:46:21.215Z,4.92
2019-03-22T05:47:20.843Z,4.86
2019-03-22T05:48:20.736Z,4.91
2019-03-22T05:49:19.714Z,4.98
2019-03-22T05:50:21.730Z,4.94
2019-03-22T05:51:21.178Z,4.89
2019-03-22T05:52:20.288Z,4.94
2019-03-22T05:53:20.253Z,4.91
2019-03-22T05:54:19.732Z,4.83
2019-03-22T05:55:19.312Z,4.80
2019-03-22T05:56:19.289Z,4.88
2019-03-22T05:57:19.371Z,4.88
2019-03-22T05:58:19.284Z,4.84
2019-03-22T05:59:19.264Z,4.91
2019-03-22T06:00:19.256Z,4.92
2019-03-22T06:01:19.287Z,4.89
2019-03-22T06:02:19.302Z,4.98
2019-03-22T06:03:19.254Z,4.96
2019-03-22T06:04:19.237Z,5.13
2019-03-22T06:05:19.226Z,5.13
2019-03-22T06:06:19.259Z,5.16
2019-03-22T06:07:19.214Z,5.30
2019-03-22T06:08:20.789Z,5.22
2019-03-22T06:09:20.788Z,5.23
2019-03-22T06:10:19.191Z,5.32
2019-03-22T06:11:19.189Z,5.45
2019-03-22T06:12:19.188Z,5.40
2019-03-22T06:13:19.181Z,5.53
2019-03-22T06:14:19.228Z,5.60
2019-03-22T06:16:41.411Z,5.71
2019-03-22T06:17:51.161Z,5.78
2019-03-22T06:19:34.672Z,5.77
2019-03-22T06:20:34.239Z,5.89
2019-03-22T06:22:28.551Z,5.85
2019-03-22T06:23:28.045Z,5.93
2019-03-22T06:25:22.030Z,6.07
2019-03-22T06:26:21.461Z,6.09
2019-03-22T06:28:14.887Z,6.04
2019-03-22T06:29:14.833Z,6.04
2019-03-22T06:31:07.236Z,6.11
2019-03-22T06:32:08.750Z,6.16
2019-03-22T06:34:00.058Z,6.16
2019-03-22T06:35:01.080Z,6.22
2019-03-22T06:36:53.955Z,6.25
2019-03-22T06:37:52.860Z,6.19
2019-03-22T06:39:45.724Z,6.40
2019-03-22T06:40:45.732Z,6.44
2019-03-22T06:42:39.171Z,6.53
2019-03-22T06:43:39.134Z,6.61
2019-03-22T06:45:33.167Z,6.81
2019-03-22T06:46:32.993Z,6.98
2019-03-22T06:48:26.862Z,7.55
2019-03-22T06:49:25.831Z,7.81
2019-03-22T06:51:19.275Z,8.04
2019-03-22T06:52:18.757Z,8.26
2019-03-22T06:54:12.636Z,8.78
2019-03-22T06:55:12.210Z,8.90
2019-03-22T06:57:05.639Z,8.96
2019-03-22T06:58:05.598Z,9.10
2019-03-22T07:00:05.975Z,9.68
2019-03-22T07:00:57.518Z,9.71
2019-03-22T07:02:51.781Z,9.94
2019-03-22T07:03:51.275Z,10.14
2019-03-22T07:05:43.691Z,11.19
2019-03-22T07:06:44.629Z,11.97
2019-03-22T07:08:37.151Z,13.18
2019-03-22T07:09:37.522Z,13.77
2019-03-22T07:11:29.453Z,14.34
2019-03-22T07:12:29.256Z,14.25
2019-03-22T07:14:22.938Z,14.38
2019-03-22T07:15:22.944Z,14.84
2019-03-22T07:17:16.935Z,15.23
2019-03-22T07:18:16.892Z,15.75
2019-03-22T07:20:10.467Z,15.74
2019-03-22T07:21:10.428Z,15.70
2019-03-22T07:23:03.742Z,15.82
2019-03-22T07:24:03.333Z,15.74
2019-03-22T07:25:56.216Z,15.74
2019-03-22T07:26:56.663Z,15.79
2019-03-22T07:28:49.093Z,15.81
2019-03-22T07:29:49.566Z,15.96
2019-03-22T07:31:41.947Z,16.67
2019-03-22T07:32:41.539Z,17.13
2019-03-22T07:34:34.344Z,17.51
2019-03-22T07:35:34.863Z,17.63
2019-03-22T07:37:27.725Z,17.95
2019-03-22T07:38:28.206Z,18.22
2019-03-22T07:40:21.115Z,17.95
2019-03-22T07:41:20.599Z,17.30
2019-03-22T07:43:14.106Z,16.93
2019-03-22T07:44:14.551Z,16.85
2019-03-22T07:46:06.979Z,16.83
2019-03-22T07:47:06.958Z,16.81
2019-03-22T07:49:00.356Z,16.58
2019-03-22T07:49:59.857Z,16.42
2019-03-22T07:51:52.757Z,16.65
2019-03-22T07:52:53.272Z,16.71
2019-03-22T07:54:46.123Z,16.81
2019-03-22T07:55:45.624Z,16.73
2019-03-22T07:57:39.513Z,16.65
2019-03-22T07:58:38.830Z,16.68
2019-03-22T08:00:32.475Z,16.88
2019-03-22T08:01:32.389Z,16.96
2019-03-22T08:03:25.888Z,17.00
2019-03-22T08:04:26.306Z,16.95
2019-03-22T08:05:26.284Z,17.04
2019-03-22T08:06:25.419Z,17.11
2019-03-22T08:07:34.961Z,17.07
2019-03-22T08:09:18.863Z,17.28
2019-03-22T08:10:18.917Z,17.23
2019-03-22T08:12:13.260Z,17.36
2019-03-22T08:13:14.234Z,17.73
2019-03-22T08:15:08.320Z,18.39
2019-03-22T08:16:06.605Z,18.80
2019-03-22T08:17:59.485Z,19.63
2019-03-22T08:18:59.412Z,19.94
2019-03-22T08:20:52.370Z,20.08
2019-03-22T08:21:52.390Z,20.18
2019-03-22T08:23:45.341Z,20.43
2019-03-22T08:24:45.346Z,20.18
2019-03-22T08:26:38.136Z,20.34
2019-03-22T08:27:38.072Z,20.33
2019-03-22T08:29:32.248Z,20.27
2019-03-22T08:30:42.542Z,20.47
2019-03-22T08:32:25.200Z,20.68
2019-03-22T08:33:25.068Z,20.66
2019-03-22T08:35:19.058Z,20.86
2019-03-22T08:36:18.317Z,20.10
2019-03-22T08:38:12.131Z,19.46
2019-03-22T08:39:12.089Z,19.78
2019-03-22T08:41:05.607Z,19.65
2019-03-22T08:42:05.244Z,19.50
2019-03-22T08:43:58.446Z,19.76
2019-03-22T08:44:58.430Z,19.18
2019-03-22T08:46:51.802Z,19.32
2019-03-22T08:47:51.313Z,19.43
2019-03-22T08:49:45.031Z,19.39
2019-03-22T08:50:43.892Z,19.02
2019-03-22T08:52:37.254Z,19.65
2019-03-22T08:53:37.359Z,19.73
2019-03-22T08:55:30.487Z,19.47
2019-03-22T08:56:30.040Z,19.57
2019-03-22T08:58:23.861Z,19.72
2019-03-22T08:59:23.514Z,19.94
2019-03-22T09:01:17.251Z,20.39
2019-03-22T09:02:17.134Z,21.01
2019-03-22T09:04:10.676Z,20.72
2019-03-22T09:05:10.348Z,20.31
2019-03-22T09:07:03.513Z,20.23
2019-03-22T09:08:03.273Z,20.23
2019-03-22T09:09:56.426Z,19.65
2019-03-22T09:10:56.366Z,19.39
2019-03-22T09:12:49.363Z,19.55
2019-03-22T09:13:49.254Z,19.66
2019-03-22T09:15:42.278Z,20.58
2019-03-22T09:16:42.255Z,20.79
2019-03-22T09:18:35.089Z,20.76
2019-03-22T09:19:35.120Z,20.51
2019-03-22T09:21:28.079Z,20.64
2019-03-22T09:22:27.974Z,20.09
2019-03-22T09:24:21.465Z,20.43
2019-03-22T09:25:21.456Z,20.34
2019-03-22T09:27:14.879Z,19.76
2019-03-22T09:28:14.543Z,19.66
2019-03-22T09:30:07.746Z,19.13
2019-03-22T09:31:11.024Z,19.05
2019-03-22T09:33:00.652Z,18.94
2019-03-22T09:34:00.751Z,18.67
2019-03-22T09:35:53.665Z,18.24
2019-03-22T09:36:53.387Z,18.06
2019-03-22T09:38:46.444Z,18.10
2019-03-22T09:39:46.179Z,18.03
2019-03-22T09:41:39.522Z,18.17
2019-03-22T09:42:39.223Z,18.50
2019-03-22T09:44:42.898Z,18.44
2019-03-22T09:45:31.870Z,18.57
2019-03-22T09:47:25.775Z,19.02
2019-03-22T09:48:25.737Z,18.97
2019-03-22T09:50:19.118Z,18.76
2019-03-22T09:51:19.165Z,18.64
2019-03-22T09:53:12.011Z,18.80
2019-03-22T09:54:11.940Z,19.14
2019-03-22T09:56:05.447Z,19.36
2019-03-22T09:57:05.370Z,19.47
2019-03-22T09:58:58.700Z,19.47
2019-03-22T09:59:58.011Z,19.60
2019-03-22T10:01:51.315Z,19.88
2019-03-22T10:02:50.899Z,19.70
2019-03-22T10:04:44.746Z,19.97
2019-03-22T10:05:43.982Z,19.86
2019-03-22T10:07:37.139Z,19.79
2019-03-22T10:08:36.736Z,19.68
2019-03-22T10:10:30.006Z,19.95
2019-03-22T10:11:29.992Z,19.93
2019-03-22T10:13:23.444Z,19.32
2019-03-22T10:14:23.852Z,19.48
2019-03-22T10:16:16.932Z,19.66
2019-03-22T10:17:16.494Z,19.72
2019-03-22T10:19:10.348Z,19.60
2019-03-22T10:20:10.191Z,19.55
2019-03-22T10:22:03.256Z,19.70
2019-03-22T10:23:03.305Z,19.75
2019-03-22T10:24:56.214Z,19.88
2019-03-22T10:25:56.194Z,20.00
2019-03-22T10:27:49.055Z,19.97
2019-03-22T10:28:49.592Z,19.79
2019-03-22T10:30:44.052Z,19.84
2019-03-22T10:31:41.992Z,20.16
2019-03-22T10:32:41.844Z,20.24
2019-03-22T10:33:41.990Z,20.28
2019-03-22T10:34:42.495Z,19.94
2019-03-22T10:35:41.964Z,20.02
2019-03-22T10:36:42.516Z,19.87
2019-03-22T10:37:41.968Z,19.86
2019-03-22T10:38:42.510Z,19.94
2019-03-22T10:39:42.007Z,19.91
2019-03-22T10:40:42.593Z,19.84
2019-03-22T10:41:42.033Z,19.86
2019-03-22T10:42:42.101Z,19.87
2019-03-22T10:43:42.069Z,19.90
2019-03-22T10:44:42.611Z,19.98
2019-03-22T10:45:42.025Z,19.80
2019-03-22T10:46:42.153Z,19.93
2019-03-22T10:47:42.591Z,20.09
2019-03-22T10:48:42.137Z,20.27
2019-03-22T10:49:42.514Z,20.10
2019-03-22T10:50:42.095Z,20.30
2019-03-22T10:51:55.605Z,20.27
2019-03-22T10:52:42.087Z,20.06
2019-03-22T10:53:43.179Z,19.93
2019-03-22T10:54:42.657Z,20.10
2019-03-22T10:55:42.604Z,20.08
2019-03-22T10:56:42.900Z,20.21
2019-03-22T10:57:42.602Z,20.42
2019-03-22T10:58:42.131Z,20.65
2019-03-22T10:59:42.914Z,20.51
2019-03-22T11:00:42.642Z,20.61
2019-03-22T11:01:51.963Z,20.59
2019-03-22T11:02:43.387Z,20.33
2019-03-22T11:03:42.099Z,20.50
2019-03-22T11:04:42.173Z,20.71
2019-03-22T11:05:42.107Z,20.66
2019-03-22T11:06:42.671Z,20.84
2019-03-22T11:07:42.189Z,20.46
2019-03-22T11:08:42.707Z,20.83
2019-03-22T11:09:42.706Z,20.99
2019-03-22T11:10:42.728Z,20.81
2019-03-22T11:11:42.212Z,20.90
2019-03-22T11:12:43.260Z,20.68
2019-03-22T11:13:42.750Z,20.46
2019-03-22T11:14:45.611Z,20.51
2019-03-22T11:15:48.527Z,20.30
2019-03-22T11:16:42.113Z,20.34
2019-03-22T11:17:42.161Z,20.38
2019-03-22T11:18:42.681Z,20.21
2019-03-22T11:19:42.251Z,20.33
2019-03-22T11:20:41.967Z,20.54
2019-03-22T11:21:41.952Z,20.65
2019-03-22T11:22:42.260Z,20.49
2019-03-22T11:23:42.771Z,20.28
2019-03-22T11:24:42.914Z,20.20
2019-03-22T11:25:42.798Z,20.41
2019-03-22T11:26:42.316Z,20.64
2019-03-22T11:27:42.818Z,20.84
2019-03-22T11:28:42.960Z,20.86
2019-03-22T11:29:42.778Z,20.84
2019-03-22T11:30:43.338Z,20.72
2019-03-22T11:31:42.254Z,20.50
2019-03-22T11:32:42.540Z,20.51
2019-03-22T11:33:42.250Z,20.54
2019-03-22T11:34:41.862Z,20.65
2019-03-22T11:35:41.848Z,20.51
2019-03-22T11:36:41.871Z,20.08
2019-03-22T11:37:41.852Z,20.06
2019-03-22T11:38:41.889Z,20.03
2019-03-22T11:39:41.862Z,20.10
2019-03-22T11:40:41.875Z,20.49
2019-03-22T11:41:41.900Z,20.43
2019-03-22T11:42:41.909Z,20.56
2019-03-22T11:43:41.889Z,20.33
2019-03-22T11:44:41.914Z,20.46
2019-03-22T11:45:41.899Z,20.46
2019-03-22T11:46:41.904Z,20.51
2019-03-22T11:47:41.908Z,20.41
2019-03-22T11:48:41.912Z,20.34
2019-03-22T11:49:41.920Z,20.42
2019-03-22T11:50:41.929Z,20.79
2019-03-22T11:51:41.958Z,20.93
2019-03-22T11:52:41.950Z,20.76
2019-03-22T11:53:41.955Z,20.81
2019-03-22T11:54:41.947Z,20.89
2019-03-22T11:55:41.973Z,20.90
2019-03-22T11:56:41.955Z,20.71
2019-03-22T11:57:41.967Z,20.53
2019-03-22T11:58:41.978Z,20.53
2019-03-22T11:59:42.033Z,20.69
2019-03-22T12:00:41.982Z,20.83
2019-03-22T12:01:41.980Z,20.99
2019-03-22T12:02:42.000Z,21.13
2019-03-22T12:03:41.991Z,21.19
2019-03-22T12:04:41.998Z,21.02
2019-03-22T12:05:42.024Z,20.86
2019-03-22T12:06:42.013Z,20.90
2019-03-22T12:07:42.015Z,20.90
2019-03-22T12:08:42.615Z,21.04
2019-03-22T12:09:43.489Z,21.21
2019-03-22T12:10:43.492Z,21.21
2019-03-22T12:11:45.017Z,21.16
2019-03-22T12:12:43.094Z,20.96
2019-03-22T12:14:42.354Z,20.90
2019-03-22T12:15:42.298Z,21.05
2019-03-22T12:16:44.476Z,21.20
2019-03-22T12:25:52.863Z,21.02
2019-03-22T12:28:32.327Z,21.26
2019-03-22T12:30:32.585Z,21.39
2019-03-22T12:33:30.788Z,21.82
2019-03-22T12:35:52.473Z,21.39
2019-03-22T12:38:45.575Z,21.05
2019-03-22T12:41:26.204Z,21.13
2019-03-22T12:42:12.272Z,21.42
2019-03-22T12:44:05.784Z,21.26
2019-03-22T12:45:06.229Z,21.14
2019-03-22T12:46:59.146Z,21.29
2019-03-22T12:47:58.562Z,21.41
2019-03-22T12:49:51.479Z,21.59
2019-03-22T12:50:51.470Z,21.41
2019-03-22T12:52:45.631Z,21.09
2019-03-22T12:53:45.100Z,21.01
2019-03-22T12:54:45.248Z,20.99
2019-03-22T12:55:48.622Z,20.87
2019-03-22T12:56:45.817Z,20.84
2019-03-22T12:57:49.966Z,21.02
2019-03-22T12:59:31.265Z,21.16
2019-03-22T12:59:46.918Z,21.27
2019-03-22T13:00:54.428Z,21.20
2019-03-22T13:03:05.964Z,21.04
2019-03-22T13:03:52.500Z,21.14
2019-03-22T13:04:50.925Z,21.21
2019-03-22T13:12:41.907Z,21.20
2019-03-22T13:15:23.849Z,21.20
2019-03-22T13:18:06.382Z,21.17
2019-03-22T13:23:56.183Z,21.32
2019-03-22T13:26:27.935Z,21.60
2019-03-22T13:28:26.637Z,21.64
2019-03-22T13:29:20.603Z,21.76
2019-03-22T13:31:35.370Z,21.85
2019-03-22T13:32:25.327Z,21.79
2019-03-22T13:33:22.582Z,21.72
2019-03-22T13:35:16.842Z,21.56
2019-03-22T13:37:17.957Z,21.66
2019-03-22T13:38:24.814Z,21.60
2019-03-22T13:39:24.232Z,21.66
2019-03-22T13:44:58.062Z,21.63
2019-03-22T13:47:08.815Z,21.42
2019-03-22T13:47:56.856Z,21.41
2019-03-22T13:51:57.840Z,21.66
2019-03-22T13:52:57.217Z,21.59
2019-03-22T13:53:57.588Z,21.39
2019-03-22T13:54:57.616Z,21.39
2019-03-22T13:55:54.297Z,21.54
2019-03-22T13:56:53.813Z,21.39
2019-03-22T13:57:56.076Z,21.35
2019-03-22T13:59:05.579Z,21.35
2019-03-22T13:59:55.851Z,21.51
2019-03-22T14:00:54.133Z,21.64
2019-03-22T14:01:56.141Z,21.53
2019-03-22T14:03:02.094Z,21.56
2019-03-22T14:03:55.988Z,21.67
2019-03-22T14:07:55.824Z,21.67
2019-03-22T14:08:46.456Z,21.41
2019-03-22T14:11:01.605Z,21.53
2019-03-22T14:11:39.403Z,21.53
2019-03-22T14:13:56.474Z,21.32
2019-03-22T14:16:43.917Z,20.76
2019-03-22T14:19:36.159Z,20.95
2019-03-22T14:22:55.621Z,20.84
2019-03-22T14:27:59.169Z,20.98
2019-03-22T14:29:49.795Z,21.23
2019-03-22T14:30:48.282Z,21.39
2019-03-22T14:32:44.532Z,21.54
2019-03-22T14:34:59.243Z,21.44
2019-03-22T14:37:52.382Z,21.09
2019-03-22T14:38:49.421Z,20.99
2019-03-22T14:40:45.474Z,20.83
2019-03-22T14:41:39.579Z,20.93
2019-03-22T14:43:40.586Z,21.02
2019-03-22T14:45:58.230Z,20.86
2019-03-22T14:49:14.664Z,20.72
2019-03-22T14:49:44.639Z,20.68
2019-03-22T14:50:42.437Z,20.76
2019-03-22T14:51:50.296Z,20.84
2019-03-22T14:52:46.268Z,20.76
2019-03-22T14:53:40.000Z,20.89
2019-03-22T14:54:40.264Z,20.91
2019-03-22T14:55:56.973Z,20.90
2019-03-22T14:56:41.714Z,20.91
2019-03-22T14:57:48.969Z,20.84
2019-03-22T14:58:40.533Z,20.65
2019-03-22T15:01:58.007Z,20.53
2019-03-22T15:02:37.101Z,20.51
2019-03-22T15:04:38.755Z,20.35
2019-03-22T15:07:28.785Z,20.53
2019-03-22T15:08:24.473Z,20.50
2019-03-22T15:10:22.907Z,20.51
2019-03-22T15:13:15.577Z,20.50
2019-03-22T15:16:32.014Z,20.49
2019-03-22T15:19:28.092Z,20.35
2019-03-22T15:22:03.109Z,20.20
2019-03-22T15:26:34.050Z,20.23
2019-03-22T15:29:25.473Z,20.21
2019-03-22T15:30:25.200Z,20.21
2019-03-22T15:32:58.539Z,20.20
2019-03-22T15:34:40.009Z,20.23
2019-03-22T15:37:27.406Z,20.15
2019-03-22T15:40:53.634Z,20.10
2019-03-22T15:43:29.346Z,19.95
2019-03-22T15:44:15.653Z,19.88
2019-03-22T15:46:06.612Z,19.88
2019-03-22T15:50:50.318Z,19.78
2019-03-22T15:51:38.597Z,19.72
2019-03-22T15:52:39.104Z,19.60
2019-03-22T15:53:57.308Z,19.58
2019-03-22T15:54:39.224Z,19.54
2019-03-22T15:55:53.028Z,19.55
2019-03-22T15:56:35.330Z,19.61
2019-03-22T15:57:51.911Z,19.40
2019-03-22T15:58:36.291Z,19.39
2019-03-22T15:59:34.432Z,19.54
2019-03-22T16:00:34.954Z,19.48
2019-03-22T16:01:34.756Z,19.46
2019-03-22T16:02:34.943Z,19.47
2019-03-22T16:03:44.096Z,19.42
2019-03-22T16:04:34.243Z,19.40
2019-03-22T16:05:35.518Z,19.35
2019-03-22T16:06:34.444Z,19.36
2019-03-22T16:07:34.703Z,19.46
2019-03-22T16:08:37.814Z,19.40
2019-03-22T16:09:36.290Z,19.42
2019-03-22T16:10:34.772Z,19.42
2019-03-22T16:11:34.598Z,19.36
2019-03-22T16:12:34.646Z,19.25
2019-03-22T16:13:34.488Z,19.20
2019-03-22T16:14:35.632Z,19.28
2019-03-22T16:15:37.080Z,19.21
2019-03-22T16:16:35.086Z,19.20